Time;durP1;ratioP1;P1;durP2;ratioP2;P2;SDS_P1;SDS_P2;PMS_P1;PMS_P2;Temp;Humidity;BMP_temperature;BMP_pressure;BME280_temperature;BME280_humidity;BME280_pressure;Samples;Min_cycle;Max_cycle;Signal;HPM_P1;HPM_P2
2023/05/28 00:02:14;;;;;;;6.87;3.40;;;;;;;12.91;64.77;101950.53;5060836;28;20094;-94
2023/05/28 00:04:39;;;;;;;6.03;3.20;;;;;;;12.80;65.16;101951.47;5059736;28;20086;-93
2023/05/28 00:07:06;;;;;;;5.30;3.23;;;;;;;12.77;65.31;101950.63;5061122;28;20032;-92
2023/05/28 00:09:47;;;;;;;7.40;3.30;;;;;;;12.60;65.78;101935.97;5060839;28;20050;-93
2023/05/28 00:12:12;;;;;;;6.95;3.33;;;;;;;12.58;65.62;101939.47;5060947;28;20025;-93
2023/05/28 00:14:38;;;;;;;6.83;3.50;;;;;;;12.50;65.88;101936.88;5061237;28;20063;-93
2023/05/28 00:17:03;;;;;;;5.03;3.20;;;;;;;12.47;65.90;101927.38;5062224;28;20024;-93
2023/05/28 00:19:41;;;;;;;7.23;3.57;;;;;;;12.50;66.21;101937.75;5060487;28;20079;-92
2023/05/28 00:22:07;;;;;;;5.45;3.38;;;;;;;12.45;66.78;101939.53;5061340;28;20028;-93
2023/05/28 00:24:32;;;;;;;4.50;2.90;;;;;;;12.34;66.46;101930.91;5061119;28;20048;-93
2023/05/28 00:26:57;;;;;;;6.63;3.30;;;;;;;12.20;66.79;101920.56;5060668;28;20103;-92
2023/05/28 00:29:43;;;;;;;6.53;3.10;;;;;;;12.26;67.05;101943.09;5060269;28;20527;-92
2023/05/28 00:32:09;;;;;;;4.82;3.20;;;;;;;12.10;66.79;101929.28;5059708;28;20036;-93
2023/05/28 00:34:34;;;;;;;6.13;3.43;;;;;;;12.09;67.19;101938.81;5059688;28;20021;-93
2023/05/28 00:37:11;;;;;;;6.40;3.33;;;;;;;12.09;67.42;101943.19;5063148;28;20040;-92
2023/05/28 00:39:36;;;;;;;6.45;3.50;;;;;;;12.02;67.48;101939.72;5067046;28;20009;-93
2023/05/28 00:42:03;;;;;;;4.83;3.30;;;;;;;11.99;67.65;101944.94;5065358;28;20032;-93
2023/05/28 00:44:32;;;;;;;5.05;3.45;;;;;;;12.00;68.71;101944.06;5059293;28;20611;-93
2023/05/28 00:47:15;;;;;;;5.13;3.05;;;;;;;11.90;68.02;101936.25;5059695;28;20025;-93
2023/05/28 00:49:42;;;;;;;4.78;3.10;;;;;;;11.87;68.46;101938.88;5059117;28;20469;-93
2023/05/28 00:52:30;;;;;;;3.47;2.67;;;;;;;11.89;68.36;101951.84;5058905;28;20041;-93
2023/05/28 00:54:55;;;;;;;5.25;2.80;;;;;;;11.83;69.46;101949.28;5059035;28;20087;-92
2023/05/28 00:57:23;;;;;;;4.67;2.87;;;;;;;11.74;68.46;101943.25;5059649;28;20021;-92
2023/05/28 00:59:50;;;;;;;6.63;3.28;;;;;;;11.83;68.42;101954.50;5060012;28;20040;-94
2023/05/28 01:02:15;;;;;;;4.50;2.80;;;;;;;11.71;68.47;101927.66;5059120;28;20040;-92
2023/05/28 01:04:41;;;;;;;5.43;3.13;;;;;;;11.73;68.72;101925.03;5058255;28;20457;-92
2023/05/28 01:07:06;;;;;;;3.90;2.67;;;;;;;11.77;69.44;101938.88;5058651;28;20126;-92
2023/05/28 01:09:34;;;;;;;5.23;2.90;;;;;;;11.75;69.24;101938.91;5058952;28;20029;-93
2023/05/28 01:12:00;;;;;;;4.53;2.80;;;;;;;11.79;69.02;101942.34;5058786;28;20029;-92
2023/05/28 01:14:26;;;;;;;6.07;3.22;;;;;;;11.77;69.27;101947.56;5058859;28;20029;-92
2023/05/28 01:16:52;;;;;;;6.03;3.27;;;;;;;11.70;68.71;101925.06;5058674;28;20481;-93
2023/05/28 01:19:27;;;;;;;5.30;3.30;;;;;;;11.73;69.09;101940.63;5059008;28;20389;-92
2023/05/28 01:21:56;;;;;;;5.28;3.17;;;;;;;11.65;69.16;101925.03;5058781;28;20040;-93
2023/05/28 01:24:22;;;;;;;6.50;3.28;;;;;;;11.68;69.45;101939.78;5059329;28;20109;-92
2023/05/28 01:26:49;;;;;;;5.65;3.25;;;;;;;11.55;69.11;101921.63;5059356;28;20093;-92
2023/05/28 01:29:29;;;;;;;6.40;3.33;;;;;;;11.56;69.78;101925.06;5058606;28;20323;-93
2023/05/28 01:31:55;;;;;;;5.80;3.30;;;;;;;11.61;69.49;101938.94;5062899;28;20025;-92
2023/05/28 01:34:20;;;;;;;5.70;2.97;;;;;;;11.55;69.66;101931.13;5058247;28;20027;-93
2023/05/28 01:36:56;;;;;;;6.53;3.37;;;;;;;11.58;70.10;101938.94;5057178;28;20036;-92
2023/05/28 01:39:25;;;;;;;5.30;3.10;;;;;;;11.47;70.08;101930.28;5057858;28;20113;-92
2023/05/28 01:41:51;;;;;;;4.10;2.88;;;;;;;11.36;70.61;101925.13;5056997;28;20276;-94
2023/05/28 01:44:30;;;;;;;5.88;3.25;;;;;;;11.33;70.42;101927.72;5057901;28;20097;-92
2023/05/28 01:46:56;;;;;;;4.75;2.90;;;;;;;11.35;71.56;101942.44;5057330;28;20463;-92
2023/05/28 01:49:22;;;;;;;4.15;2.97;;;;;;;11.32;72.11;101933.78;5056908;28;20040;-92
2023/05/28 01:51:57;;;;;;;4.93;3.30;;;;;;;11.38;74.10;101944.16;5056368;28;20041;-92
2023/05/28 01:54:22;;;;;;;6.80;3.10;;;;;;;11.37;71.64;101934.66;5056982;28;20168;-92
2023/05/28 01:56:47;;;;;;;4.77;2.80;;;;;;;11.37;72.84;101935.50;5057336;28;20517;-92
2023/05/28 01:59:13;;;;;;;5.70;2.90;;;;;;;11.43;73.55;101942.44;5057935;28;20013;-92
2023/05/28 02:01:39;;;;;;;4.13;2.67;;;;;;;11.30;71.84;101918.19;5057552;28;20025;-93
2023/05/28 02:04:05;;;;;;;3.90;2.70;;;;;;;11.31;71.68;101925.13;5057144;28;20021;-92
2023/05/28 02:06:40;;;;;;;3.33;2.50;;;;;;;11.33;71.25;101928.56;5057180;28;20044;-93
2023/05/28 02:09:06;;;;;;;4.43;2.90;;;;;;;11.25;71.17;101910.41;5057348;28;20071;-92
2023/05/28 02:11:31;;;;;;;4.13;2.63;;;;;;;11.30;70.63;101920.81;5056287;28;20021;-92
2023/05/28 02:13:57;;;;;;;4.70;2.73;;;;;;;11.35;71.42;101929.44;5057004;28;20074;-92
2023/05/28 02:16:23;;;;;;;4.27;2.80;;;;;;;11.34;72.75;101925.09;5056739;28;20020;-92
2023/05/28 02:18:55;;;;;;;3.95;2.75;;;;;;;11.30;71.44;101919.91;5057158;28;20316;-92
2023/05/28 02:21:23;;;;;;;3.72;2.80;;;;;;;11.27;72.83;101913.00;5056329;28;20032;-92
2023/05/28 02:23:49;;;;;;;5.47;3.13;;;;;;;11.27;72.77;101915.59;5057214;28;20052;-92
2023/05/28 02:26:30;;;;;;;4.30;2.95;;;;;;;11.12;71.63;101895.69;5061883;28;20021;-92
2023/05/28 02:28:55;;;;;;;4.28;2.83;;;;;;;11.23;71.47;101919.94;5057529;28;20079;-92
2023/05/28 02:31:21;;;;;;;4.77;2.70;;;;;;;11.18;71.39;101907.81;5057713;28;20017;-92
2023/05/28 02:33:46;;;;;;;5.10;2.87;;;;;;;11.16;72.33;101902.59;5057885;28;20460;-92
2023/05/28 02:36:13;;;;;;;4.07;2.50;;;;;;;11.16;71.79;101901.75;5058031;28;20392;-93
2023/05/28 02:38:50;;;;;;;4.45;2.72;;;;;;;11.16;71.75;101913.00;5057770;28;20103;-93
2023/05/28 02:41:15;;;;;;;4.40;2.70;;;;;;;11.11;71.86;101904.34;5058105;28;20036;-92
2023/05/28 02:43:40;;;;;;;3.53;2.63;;;;;;;11.09;72.41;101903.47;5055914;28;20021;-92
2023/05/28 02:46:06;;;;;;;4.23;2.53;;;;;;;11.15;75.43;101920.78;5056571;28;20035;-91
2023/05/28 02:48:31;;;;;;;5.40;2.77;;;;;;;11.16;72.33;101922.53;5058460;28;20029;-92
2023/05/28 02:50:57;;;;;;;3.20;2.70;;;;;;;11.16;72.19;101925.97;5062667;28;20051;-92
2023/05/28 02:53:23;;;;;;;4.07;2.53;;;;;;;11.16;72.02;101925.97;5062167;28;20040;-92
2023/05/28 02:55:49;;;;;;;4.13;2.53;;;;;;;11.12;71.98;101921.66;5056824;28;20091;-92
2023/05/28 02:58:14;;;;;;;4.10;2.50;;;;;;;11.13;72.23;101926.00;5038147;28;20363;-92
2023/05/28 03:00:41;;;;;;;3.77;2.40;;;;;;;11.09;72.16;101921.66;5036467;28;20049;-93
2023/05/28 03:03:06;;;;;;;5.63;2.40;;;;;;;10.94;72.34;101900.00;5038314;28;20474;-93
2023/05/28 03:05:32;;;;;;;3.50;2.50;;;;;;;11.02;72.69;101923.41;5037190;28;20032;-93
2023/05/28 03:08:01;;;;;;;4.90;2.67;;;;;;;10.94;72.24;101915.59;5038534;28;20041;-93
2023/05/28 03:10:40;;;;;;;4.38;2.42;;;;;;;10.92;72.45;101906.06;5037152;28;20102;-92
2023/05/28 03:13:11;;;;;;;3.63;2.60;;;;;;;10.93;72.35;101915.59;5038824;28;20017;-93
2023/05/28 03:15:45;;;;;;;4.20;2.65;;;;;;;10.89;72.57;101906.06;5037869;28;20033;-92
2023/05/28 03:18:11;;;;;;;4.20;2.60;;;;;;;10.95;72.64;101919.94;5038041;28;20072;-92
2023/05/28 03:20:36;;;;;;;3.73;2.40;;;;;;;10.94;72.81;101925.97;5041935;28;20021;-92
2023/05/28 03:23:02;;;;;;;4.23;2.60;;;;;;;10.91;73.12;101933.78;5051486;28;20082;-92
2023/05/28 03:25:27;;;;;;;3.63;2.60;;;;;;;10.82;72.49;101912.97;5066597;28;20009;-93
2023/05/28 03:28:17;;;;;;;3.63;2.53;;;;;;;10.80;73.31;101913.00;5056792;28;20448;-92
2023/05/28 03:30:42;;;;;;;3.88;2.40;;;;;;;10.84;73.10;101919.06;5054413;28;20059;-92
2023/05/28 03:33:07;;;;;;;4.37;2.33;;;;;;;10.75;76.52;101908.66;5056264;28;20029;-92
2023/05/28 03:35:32;;;;;;;3.80;2.40;;;;;;;10.79;75.45;101926.00;5055934;28;20045;-92
2023/05/28 03:37:58;;;;;;;4.00;2.20;;;;;;;10.77;73.52;101917.31;5056282;28;20032;-93
2023/05/28 03:40:23;;;;;;;4.53;2.63;;;;;;;10.70;73.71;101910.38;5056530;28;20029;-92
2023/05/28 03:42:48;;;;;;;3.47;2.40;;;;;;;10.77;73.21;101935.50;5056019;28;20074;-92
2023/05/28 03:45:14;;;;;;;3.13;2.33;;;;;;;10.75;73.24;101932.03;5056282;28;20453;-92
2023/05/28 03:47:53;;;;;;;4.10;2.60;;;;;;;10.66;74.32;101920.78;5056187;28;20025;-93
2023/05/28 03:50:18;;;;;;;3.25;2.30;;;;;;;10.70;73.52;101925.94;5056941;28;20036;-92
2023/05/28 03:52:43;;;;;;;5.40;2.70;;;;;;;10.60;73.91;101918.16;5054960;28;20041;-92
2023/05/28 03:55:09;;;;;;;3.20;2.57;;;;;;;10.62;73.24;101919.03;5054741;28;20021;-92
2023/05/28 03:57:34;;;;;;;4.93;2.67;;;;;;;10.71;73.70;101933.75;5054675;28;20113;-91
2023/05/28 04:00:00;;;;;;;3.10;2.37;;;;;;;10.71;74.29;101935.47;5056759;28;20047;-92
2023/05/28 04:02:25;;;;;;;4.67;2.60;;;;;;;10.71;73.92;101941.56;5055983;28;20037;-92
2023/05/28 04:04:51;;;;;;;3.80;2.30;;;;;;;10.71;74.32;101933.75;5055809;28;20025;-93
2023/05/28 04:07:16;;;;;;;5.43;2.50;;;;;;;10.70;74.23;101936.34;5055788;28;20032;-93
2023/05/28 04:09:42;;;;;;;4.43;2.43;;;;;;;10.66;77.45;101933.75;5055538;28;20032;-92
2023/05/28 04:12:07;;;;;;;3.37;2.33;;;;;;;10.63;75.61;101931.16;5055351;28;20139;-93
2023/05/28 04:14:41;;;;;;;5.70;3.20;;;;;;;10.66;79.94;101938.06;5058395;28;20056;-94
2023/05/28 04:17:06;;;;;;;7.00;3.50;;;;;;;10.69;77.82;101935.47;5056257;28;20028;-94
2023/05/28 04:19:32;;;;;;;4.80;3.07;;;;;;;10.68;78.02;101930.31;5056010;28;20033;-92
2023/05/28 04:21:57;;;;;;;6.70;3.30;;;;;;;10.65;79.74;101931.13;5056317;28;20497;-93
2023/05/28 04:24:22;;;;;;;6.50;3.60;;;;;;;10.73;80.05;101936.34;5056028;28;20051;-92
2023/05/28 04:26:48;;;;;;;4.93;3.33;;;;;;;10.64;76.96;101925.09;5068613;28;20031;-93
2023/05/28 04:29:14;;;;;;;5.90;3.10;;;;;;;10.72;78.77;101937.22;5063759;28;20025;-92
2023/05/28 04:32:04;;;;;;;4.70;2.67;;;;;;;10.87;76.45;101955.44;5052293;28;20044;-93
2023/05/28 04:34:29;;;;;;;4.70;2.90;;;;;;;10.80;79.51;101927.72;5059431;28;20017;-93
2023/05/28 04:36:56;;;;;;;4.10;2.80;;;;;;;10.78;77.81;101930.31;5058691;28;20104;-91
2023/05/28 04:39:22;;;;;;;3.80;2.50;;;;;;;10.87;77.26;101938.97;5058297;28;20051;-92
2023/05/28 04:42:07;;;;;;;3.80;2.40;;;;;;;11.03;77.49;101955.44;5058772;28;20029;-93
2023/05/28 04:44:33;;;;;;;15.35;5.65;;;;;;;10.92;84.40;101940.69;5058390;28;20063;-93
2023/05/28 04:46:59;;;;;;;12.18;4.90;;;;;;;11.10;80.05;101963.22;5058132;28;20116;-91
2023/05/28 04:49:25;;;;;;;12.43;4.83;;;;;;;11.08;83.60;101948.50;5057900;28;20127;-91
2023/05/28 04:51:51;;;;;;;9.73;4.50;;;;;;;11.20;82.08;101961.50;5056164;28;20049;-91
2023/05/28 04:54:29;;;;;;;8.40;4.03;;;;;;;11.21;81.24;101955.44;5057862;28;20433;-91
2023/05/28 04:57:02;;;;;;;7.50;3.60;;;;;;;11.23;79.47;101950.22;5057435;28;20021;-92
2023/05/28 04:59:27;;;;;;;4.95;2.97;;;;;;;11.28;79.30;101951.97;5058190;28;20025;-92
2023/05/28 05:02:16;;;;;;;5.53;2.90;;;;;;;11.32;78.51;101952.81;5058128;28;20039;-91
2023/05/28 05:04:38;;;;;;;5.18;2.85;;;;;;;11.39;78.90;101951.97;5065728;28;20082;-93
2023/05/28 05:07:04;;;;;;;7.20;3.53;;;;;;;11.44;80.65;101945.03;5058634;28;20056;-91
2023/05/28 05:09:32;;;;;;;7.80;3.87;;;;;;;11.48;80.49;101953.72;5059123;28;20021;-91
2023/05/28 05:12:08;;;;;;;10.27;4.70;;;;;;;11.56;82.30;101959.75;5057151;28;20025;-92
2023/05/28 05:14:45;;;;;;;14.75;5.80;;;;;;;11.53;84.27;101943.28;5056664;28;20028;-91
2023/05/28 05:17:19;;;;;;;12.50;4.97;;;;;;;11.69;82.87;101965.78;5057237;28;20052;-90
2023/05/28 05:19:44;;;;;;;9.80;4.30;;;;;;;11.74;80.67;101969.25;5056763;28;20025;-92
2023/05/28 05:22:10;;;;;;;9.10;3.90;;;;;;;11.73;80.27;101964.91;5056057;28;20108;-92
2023/05/28 05:25:04;;;;;;;10.07;4.50;;;;;;;11.88;81.45;101973.53;5057208;28;20032;-90
2023/05/28 05:27:29;;;;;;;10.90;4.55;;;;;;;11.82;81.30;101956.22;5069077;28;20076;-92
2023/05/28 05:30:03;;;;;;;14.73;5.77;;;;;;;11.99;83.43;101978.75;5067580;28;20021;-91
2023/05/28 05:32:29;;;;;;;15.77;5.93;;;;;;;12.03;82.33;101967.47;5057047;28;20031;-92
2023/05/28 05:35:11;;;;;;;11.77;4.90;;;;;;;12.07;81.17;101968.31;5056608;28;20021;-93
2023/05/28 05:37:37;;;;;;;12.98;5.30;;;;;;;12.17;83.60;101981.28;5057540;28;20466;-91
2023/05/28 05:40:05;;;;;;;12.73;5.23;;;;;;;12.25;82.57;101988.22;5057510;28;20036;-92
2023/05/28 05:42:36;;;;;;;10.23;4.80;;;;;;;12.22;81.30;101973.47;5058142;28;20021;-92
2023/05/28 05:45:10;;;;;;;8.55;4.07;;;;;;;12.33;81.12;101987.28;5058356;28;20025;-92
2023/05/28 05:47:41;;;;;;;7.28;3.80;;;;;;;12.43;80.73;101993.34;5056627;28;20029;-92
2023/05/28 05:50:06;;;;;;;9.00;4.22;;;;;;;12.52;79.12;101995.03;5058932;28;20063;-92
2023/05/28 05:52:34;;;;;;;8.87;3.87;;;;;;;12.56;80.21;102001.09;5057042;28;20045;-93
2023/05/28 05:54:59;;;;;;;7.22;3.80;;;;;;;12.63;80.09;101997.56;5056084;28;20049;-86
2023/05/28 05:57:26;;;;;;;7.80;4.03;;;;;;;12.72;80.50;101992.31;5053823;28;20067;-90
2023/05/28 05:59:51;;;;;;;12.45;5.85;;;;;;;12.82;81.48;101993.13;5054995;28;20017;-87
2023/05/28 06:02:16;;;;;;;19.93;7.27;;;;;;;12.82;81.53;101974.88;5055644;28;20495;-94
2023/05/28 06:04:42;;;;;;;14.37;6.63;;;;;;;12.95;80.16;101976.53;5054935;28;20182;-92
2023/05/28 06:07:07;;;;;;;12.40;5.47;;;;;;;13.08;80.65;101981.66;5055772;28;20029;-85
2023/05/28 06:09:33;;;;;;;10.83;4.83;;;;;;;13.38;79.90;101991.00;5053480;28;20071;-83
2023/05/28 06:11:59;;;;;;;13.67;5.73;;;;;;;14.23;76.52;101996.25;5053062;28;20025;-84
2023/05/28 06:14:26;;;;;;;13.93;6.17;;;;;;;14.68;75.46;101983.50;5054321;28;20393;-89
2023/05/28 06:16:52;;;;;;;15.35;6.40;;;;;;;14.94;74.69;101988.31;5053846;28;20460;-87
2023/05/28 06:19:17;;;;;;;12.47;5.33;;;;;;;15.08;74.39;101980.25;5053343;28;20108;-87
2023/05/28 06:21:42;;;;;;;19.23;7.57;;;;;;;15.16;71.67;101987.09;5054352;28;20359;-87
2023/05/28 06:24:07;;;;;;;17.83;7.17;;;;;;;15.26;71.52;101986.06;5054252;28;20056;-87
2023/05/28 06:26:33;;;;;;;15.20;6.33;;;;;;;15.46;72.63;101988.34;5053199;28;20043;-88
2023/05/28 06:28:58;;;;;;;16.53;6.90;;;;;;;15.80;70.24;101986.88;5054444;28;20067;-88
2023/05/28 06:31:24;;;;;;;14.07;6.50;;;;;;;16.19;68.13;101989.63;5059692;28;20052;-88
2023/05/28 06:33:49;;;;;;;17.23;7.57;;;;;;;16.41;68.29;101990.06;5054080;28;20037;-86
2023/05/28 06:36:15;;;;;;;16.50;6.93;;;;;;;16.77;65.15;101982.28;5053681;28;20029;-85
2023/05/28 06:38:41;;;;;;;16.42;7.05;;;;;;;16.99;65.44;101981.78;5052711;28;20052;-86
2023/05/28 06:41:06;;;;;;;12.50;5.40;;;;;;;17.28;67.76;101978.44;5053678;28;20057;-84
2023/05/28 06:43:31;;;;;;;13.00;5.53;;;;;;;17.90;64.62;101987.31;5053156;28;20021;-87
2023/05/28 06:45:57;;;;;;;11.27;4.80;;;;;;;18.34;64.81;101986.97;5053764;28;20027;-91
2023/05/28 06:48:22;;;;;;;10.20;4.23;;;;;;;18.83;63.92;101989.84;5054872;28;20085;-92
2023/05/28 06:50:47;;;;;;;12.50;5.03;;;;;;;19.27;56.16;101976.16;5054986;28;20036;-94
2023/05/28 06:53:13;;;;;;;12.30;5.00;;;;;;;19.20;60.16;101979.91;5054026;28;20116;-90
2023/05/28 06:55:38;;;;;;;13.43;5.40;;;;;;;19.28;57.74;101975.25;5054354;28;20032;-92
2023/05/28 06:58:06;;;;;;;10.60;4.43;;;;;;;19.22;60.12;101975.47;5055630;28;20481;-93
2023/05/28 07:00:31;;;;;;;12.90;5.40;;;;;;;19.11;58.43;101975.81;5054493;28;20074;-94
2023/05/28 07:02:57;;;;;;;10.73;4.57;;;;;;;19.05;56.78;101972.53;5054157;28;20466;-92
2023/05/28 07:05:22;;;;;;;13.70;5.67;;;;;;;19.03;57.22;101982.25;5055210;28;20066;-93
2023/05/28 07:07:48;;;;;;;15.70;5.70;;;;;;;18.88;55.82;101986.19;5052103;28;20025;-85
2023/05/28 07:10:13;;;;;;;15.23;6.07;;;;;;;18.76;56.83;101980.41;5052664;28;20041;-89
2023/05/28 07:12:38;;;;;;;14.33;6.30;;;;;;;18.68;56.89;101980.69;5052564;28;20017;-88
2023/05/28 07:15:06;;;;;;;14.50;5.53;;;;;;;18.85;55.87;101987.16;5052489;28;20476;-87
2023/05/28 07:17:31;;;;;;;15.13;5.38;;;;;;;18.89;55.03;101988.78;5052561;28;20115;-85
2023/05/28 07:19:56;;;;;;;14.93;5.87;;;;;;;18.49;55.62;101990.03;5056962;28;20025;-89
2023/05/28 07:22:23;;;;;;;12.77;4.97;;;;;;;18.49;58.12;101990.03;5054357;28;20032;-93
2023/05/28 07:24:49;;;;;;;11.50;4.55;;;;;;;18.61;57.25;101999.31;5054750;28;20496;-94
2023/05/28 07:27:14;;;;;;;15.80;5.87;;;;;;;18.11;55.28;101998.13;5054911;28;20086;-93
2023/05/28 07:29:39;;;;;;;16.90;5.47;;;;;;;18.03;56.63;102000.97;5053722;28;20021;-94
2023/05/28 07:32:05;;;;;;;12.43;4.20;;;;;;;18.15;58.36;102001.53;5054636;28;20025;-93
2023/05/28 07:34:31;;;;;;;9.70;3.83;;;;;;;18.47;58.66;102003.22;5055013;28;20129;-93
2023/05/28 07:36:57;;;;;;;13.75;5.28;;;;;;;18.86;59.04;102003.81;5054936;28;20280;-93
2023/05/28 07:39:22;;;;;;;10.00;4.17;;;;;;;19.02;58.84;101999.81;5055275;28;20044;-93
2023/05/28 07:41:48;;;;;;;11.00;4.60;;;;;;;19.41;57.20;101995.88;5054292;28;20029;-94
2023/05/28 07:44:15;;;;;;;13.43;5.15;;;;;;;19.38;58.11;101993.34;5054565;28;20473;-93
2023/05/28 07:46:40;;;;;;;12.75;5.28;;;;;;;19.23;57.58;101992.97;5054204;28;20029;-92
2023/05/28 07:49:06;;;;;;;13.87;5.40;;;;;;;19.01;58.29;101999.88;5054962;28;20099;-93
2023/05/28 07:51:32;;;;;;;12.00;4.80;;;;;;;18.90;59.48;101994.91;5056705;28;20021;-95
2023/05/28 07:53:57;;;;;;;11.75;5.10;;;;;;;18.77;60.16;102002.34;5054402;28;20052;-94
2023/05/28 07:56:22;;;;;;;9.20;4.57;;;;;;;18.59;60.54;102001.13;5053907;28;20052;-94
2023/05/28 07:58:48;;;;;;;9.50;4.33;;;;;;;18.50;61.15;102002.25;5054229;28;20043;-93
2023/05/28 08:01:13;;;;;;;8.03;4.27;;;;;;;18.38;60.96;101998.25;5054951;28;20060;-94
2023/05/28 08:03:38;;;;;;;6.83;3.50;;;;;;;18.38;62.23;102003.50;5053129;28;20021;-94
2023/05/28 08:06:04;;;;;;;9.10;4.00;;;;;;;18.25;62.42;102004.75;5052873;28;20028;-89
2023/05/28 08:08:30;;;;;;;9.43;4.30;;;;;;;18.07;62.49;102004.38;5053903;28;20033;-89
2023/05/28 08:10:55;;;;;;;10.73;4.27;;;;;;;17.97;63.57;102005.53;5056158;28;20025;-88
2023/05/28 08:13:21;;;;;;;12.87;5.20;;;;;;;17.75;63.06;102006.97;5057203;28;20021;-89
2023/05/28 08:15:47;;;;;;;13.73;4.93;;;;;;;17.65;64.97;102010.75;5056337;28;20064;-89
2023/05/28 08:18:12;;;;;;;10.13;4.37;;;;;;;17.58;64.99;102003.91;5056042;28;20477;-89
2023/05/28 08:20:39;;;;;;;9.77;3.83;;;;;;;17.54;64.96;101997.03;5057360;28;20283;-89
2023/05/28 08:23:05;;;;;;;10.73;5.03;;;;;;;17.60;65.84;101997.75;5057565;28;20086;-90
2023/05/28 08:25:30;;;;;;;12.48;4.40;;;;;;;17.80;65.26;101995.47;5056368;28;20029;-89
2023/05/28 08:27:56;;;;;;;14.73;5.93;;;;;;;17.97;65.32;101993.28;5057064;28;20029;-89
2023/05/28 08:30:21;;;;;;;15.23;5.23;;;;;;;18.16;64.86;101987.50;5056754;28;20021;-89
2023/05/28 08:32:47;;;;;;;9.00;4.33;;;;;;;18.44;64.77;101994.56;5056092;28;20108;-89
2023/05/28 08:35:13;;;;;;;14.90;5.40;;;;;;;18.70;64.64;101992.91;5056869;28;20033;-90
2023/05/28 08:37:38;;;;;;;10.67;4.83;;;;;;;18.97;63.09;101985.97;5057506;28;20017;-93
2023/05/28 08:40:08;;;;;;;10.53;4.83;;;;;;;19.23;62.92;101979.81;5057481;28;20029;-93
2023/05/28 08:42:34;;;;;;;11.77;5.25;;;;;;;19.51;58.86;101992.03;5057932;28;20021;-92
2023/05/28 08:45:00;;;;;;;11.60;4.60;;;;;;;19.63;57.69;101982.84;5059313;28;20017;-93
2023/05/28 08:47:27;;;;;;;11.67;4.70;;;;;;;19.78;56.26;101980.56;5054490;28;20377;-94
2023/05/28 08:49:53;;;;;;;13.80;4.88;;;;;;;19.85;55.34;101985.56;5058120;28;20071;-92
2023/05/28 08:52:20;;;;;;;9.17;3.93;;;;;;;20.05;55.68;101984.88;5056974;28;20044;-94
2023/05/28 08:54:46;;;;;;;14.02;4.88;;;;;;;19.80;49.90;101982.25;5056938;28;20104;-93
2023/05/28 08:57:15;;;;;;;;;;;;;;;19.98;51.32;101990.41;5058078;28;20032;-94
2023/05/28 08:59:40;;;;;;;13.85;5.30;;;;;;;19.97;48.75;101984.31;5056351;28;19917;-93
2023/05/28 09:02:07;;;;;;;10.97;4.50;;;;;;;20.00;49.63;101985.97;5056934;28;20473;-93
2023/05/28 09:04:33;;;;;;;11.45;4.30;;;;;;;20.29;50.41;101981.34;5057669;28;20020;-91
2023/05/28 09:06:58;;;;;;;14.40;4.80;;;;;;;20.37;48.30;101984.56;5057534;28;20102;-90
2023/05/28 09:09:24;;;;;;;9.00;4.00;;;;;;;20.48;50.99;101974.47;5056773;28;20033;-95
2023/05/28 09:11:49;;;;;;;10.45;4.03;;;;;;;20.74;48.92;101985.78;5057230;28;20056;-92
2023/05/28 09:14:17;;;;;;;11.10;4.27;;;;;;;20.67;49.35;101973.72;5064876;28;20012;-93
2023/05/28 09:16:44;;;;;;;11.52;4.70;;;;;;;20.66;48.87;101956.19;5064218;28;20029;-92
2023/05/28 09:19:10;;;;;;;11.23;4.13;;;;;;;20.78;50.19;101950.44;5038477;28;20017;-93
2023/05/28 09:21:36;;;;;;;8.88;4.20;;;;;;;21.08;47.71;101959.81;5046395;28;20040;-87
2023/05/28 09:24:05;;;;;;;10.47;4.30;;;;;;;21.25;47.96;101957.28;5053460;28;20021;-86
2023/05/28 09:26:31;;;;;;;13.93;4.70;;;;;;;21.32;46.18;101959.69;5054297;28;20115;-81
2023/05/28 09:28:57;;;;;;;12.95;4.22;;;;;;;21.33;46.25;101954.31;5051226;28;20135;-82
2023/05/28 09:31:35;;;;;;;12.60;4.40;;;;;;;21.21;47.03;101955.72;5053842;28;20032;-86
2023/05/28 09:34:04;;;;;;;12.93;4.38;;;;;;;21.23;45.38;101951.22;5045182;28;20040;-86
2023/05/28 09:36:30;;;;;;;11.38;4.03;;;;;;;21.17;46.53;101956.75;5052275;28;20230;-86
2023/05/28 09:38:55;;;;;;;11.20;4.03;;;;;;;21.39;46.34;101964.59;5054484;28;20476;-86
2023/05/28 09:41:27;;;;;;;9.60;3.50;;;;;;;21.55;44.12;101966.59;5053177;28;20086;-88
2023/05/28 09:44:04;;;;;;;9.48;3.55;;;;;;;21.65;43.67;101962.66;5053253;28;20284;-87
2023/05/28 09:46:34;;;;;;;9.63;3.22;;;;;;;21.76;42.11;101962.19;5053563;28;20459;-86
2023/05/28 09:49:00;;;;;;;5.82;3.30;;;;;;;21.84;45.39;101956.56;5053328;28;20055;-85
2023/05/28 09:51:28;;;;;;;9.73;3.90;;;;;;;21.73;41.52;101967.59;5054029;28;20119;-87
2023/05/28 09:54:03;;;;;;;10.75;4.15;;;;;;;21.54;41.42;101955.19;5053662;28;20083;-86
2023/05/28 09:56:30;;;;;;;9.05;3.80;;;;;;;21.56;42.87;101960.38;5052100;28;20033;-85
2023/05/28 09:59:00;;;;;;;10.20;3.90;;;;;;;21.49;42.77;101958.94;5054445;28;20029;-87
2023/05/28 10:01:35;;;;;;;10.88;4.38;;;;;;;21.31;43.57;101953.53;5053284;28;20029;-86
2023/05/28 10:04:13;;;;;;;10.25;3.90;;;;;;;21.32;42.89;101955.25;5045660;28;20091;-87
2023/05/28 10:06:42;;;;;;;9.98;3.72;;;;;;;21.57;43.00;101951.53;5033662;28;20033;-86
2023/05/28 10:09:12;;;;;;;10.82;3.70;;;;;;;21.69;42.46;101947.50;5044313;28;20056;-86
2023/05/28 10:11:46;;;;;;;11.13;3.75;;;;;;;21.80;41.69;101957.63;5052237;28;20393;-86
2023/05/28 10:14:11;;;;;;;10.95;3.85;;;;;;;21.87;43.21;101956.41;5054032;28;20032;-87
2023/05/28 10:16:37;;;;;;;8.63;3.63;;;;;;;22.03;42.94;101954.78;5052735;28;20021;-87
2023/05/28 10:19:02;;;;;;;8.60;3.70;;;;;;;22.13;40.21;101960.47;5053312;28;20523;-86
2023/05/28 10:21:28;;;;;;;7.03;3.33;;;;;;;22.23;41.77;101952.97;5040155;28;20088;-80
2023/05/28 10:23:54;;;;;;;8.35;3.30;;;;;;;22.38;41.89;101954.03;5034194;28;20418;-91
2023/05/28 10:26:21;;;;;;;;;;;;;;;22.62;40.19;101956.47;5036690;28;20462;-92
2023/05/28 10:28:53;;;;;;;10.38;4.10;;;;;;;22.26;42.33;101952.84;5034515;28;20004;-93
2023/05/28 10:31:23;;;;;;;10.63;3.80;;;;;;;22.21;42.04;101955.72;5034606;28;20094;-93
2023/05/28 10:33:48;;;;;;;11.45;4.25;;;;;;;22.21;40.45;101949.56;5034762;28;20121;-89
2023/05/28 10:36:14;;;;;;;9.53;3.90;;;;;;;22.31;39.56;101952.63;5033842;28;20064;-81
2023/05/28 10:38:55;;;;;;;;;;;;;;;22.41;40.68;101951.28;5032916;28;20021;-84
2023/05/28 10:41:21;;;;;;;8.75;3.90;;;;;;;22.33;40.84;101951.63;5033246;28;19920;-81
2023/05/28 10:43:48;;;;;;;8.20;3.40;;;;;;;22.48;39.72;101954.50;5033168;28;20026;-80
2023/05/28 10:46:19;;;;;;;6.60;3.30;;;;;;;22.69;39.17;101952.59;5044977;28;20100;-80
2023/05/28 10:49:08;;;;;;;6.78;3.35;;;;;;;22.79;40.25;101960.94;5052796;28;20039;-79
2023/05/28 10:52:02;;;;;;;6.70;3.25;;;;;;;22.87;39.72;101961.41;5052842;28;20389;-86
2023/05/28 10:54:30;;;;;;;8.23;3.70;;;;;;;22.87;40.77;101960.56;5053922;28;20116;-87
2023/05/28 10:57:16;;;;;;;8.23;3.45;;;;;;;22.87;41.14;101957.91;5054154;28;20048;-86
2023/05/28 11:00:03;;;;;;;5.65;3.28;;;;;;;22.86;41.86;101961.50;5041622;28;20040;-88
2023/05/28 11:02:33;;;;;;;5.47;2.75;;;;;;;22.89;41.76;101956.91;5053142;28;20405;-85
2023/05/28 11:05:01;;;;;;;7.90;3.10;;;;;;;22.87;38.99;101961.41;5053026;28;20036;-86
2023/05/28 11:07:36;;;;;;;8.13;3.22;;;;;;;22.80;40.54;101957.34;5051926;28;20108;-86
2023/05/28 11:10:04;;;;;;;9.57;3.38;;;;;;;22.66;40.33;101956.25;5052503;28;20116;-88
2023/05/28 11:12:31;;;;;;;5.18;2.90;;;;;;;22.82;41.23;101950.22;5054239;28;20029;-89
2023/05/28 11:14:57;;;;;;;8.88;3.47;;;;;;;22.91;37.67;101957.69;5061068;28;20104;-87
2023/05/28 11:17:23;;;;;;;8.00;3.30;;;;;;;22.79;36.69;101963.59;5053035;28;20068;-88
2023/05/28 11:19:49;;;;;;;9.57;3.60;;;;;;;22.60;38.95;101956.56;5052381;28;20056;-89
2023/05/28 11:22:17;;;;;;;9.00;3.60;;;;;;;22.54;37.15;101956.84;5052897;28;20032;-87
2023/05/28 11:25:12;;;;;;;6.18;3.13;;;;;;;22.59;38.00;101960.13;5052813;28;20092;-88
2023/05/28 11:27:39;;;;;;;7.53;3.30;;;;;;;22.59;40.89;101959.25;5051562;28;20029;-87